createdAt,value
2018-01-07T00:00:11.830Z,5.49
2018-01-07T00:02:42.198Z,5.46
2018-01-07T00:05:12.048Z,5.41
2018-01-07T00:07:41.968Z,5.41
2018-01-07T00:10:11.832Z,5.42
2018-01-07T00:12:41.761Z,5.40
2018-01-07T00:15:11.451Z,5.36
2018-01-07T00:17:41.024Z,5.30
2018-01-07T00:20:10.740Z,5.30
2018-01-07T00:22:40.649Z,5.26
2018-01-07T00:25:10.572Z,5.19
2018-01-07T00:27:40.629Z,5.22
2018-01-07T00:30:10.779Z,5.24
2018-01-07T00:32:40.687Z,5.17
2018-01-07T00:35:10.520Z,5.22
2018-01-07T00:37:40.343Z,5.15
2018-01-07T00:40:10.282Z,5.18
2018-01-07T00:42:40.712Z,5.19
2018-01-07T00:45:10.750Z,5.19
2018-01-07T00:47:40.523Z,5.21
2018-01-07T00:50:10.680Z,5.19
2018-01-07T00:52:41.032Z,5.13
2018-01-07T00:55:10.911Z,5.05
2018-01-07T00:57:40.814Z,5.00
2018-01-07T01:00:12.018Z,5.04
2018-01-07T01:02:42.513Z,4.95
2018-01-07T01:05:12.326Z,5.00
2018-01-07T01:07:42.280Z,4.91
2018-01-07T01:10:12.159Z,4.88
2018-01-07T01:12:41.986Z,4.89
2018-01-07T01:15:13.535Z,4.95
2018-01-07T01:17:43.367Z,4.94
2018-01-07T01:20:13.182Z,4.94
2018-01-07T01:22:43.030Z,4.87
2018-01-07T01:25:12.890Z,4.79
2018-01-07T01:27:42.813Z,4.83
2018-01-07T01:30:12.680Z,4.88
2018-01-07T01:32:42.555Z,4.96
2018-01-07T01:35:12.677Z,4.97
2018-01-07T01:37:43.054Z,5.01
2018-01-07T01:40:13.250Z,5.03
2018-01-07T01:42:43.123Z,4.97
2018-01-07T01:45:14.750Z,5.01
2018-01-07T01:47:44.802Z,5.07
2018-01-07T01:50:14.700Z,4.96
2018-01-07T01:52:45.122Z,4.85
2018-01-07T01:55:15.125Z,4.87
2018-01-07T01:57:45.327Z,4.83
2018-01-07T02:00:15.234Z,4.83
2018-01-07T02:02:44.911Z,4.80
2018-01-07T02:05:14.719Z,4.82
2018-01-07T02:07:45.065Z,4.83
2018-01-07T02:20:32.328Z,4.66
2018-01-07T02:23:08.855Z,4.61
2018-01-07T02:25:38.464Z,4.67
2018-01-07T02:28:08.360Z,4.68
2018-01-07T02:30:37.852Z,4.70
2018-01-07T02:33:07.733Z,4.69
2018-01-07T02:35:37.401Z,4.72
2018-01-07T02:38:07.292Z,4.71
2018-01-07T02:40:37.117Z,4.70
2018-01-07T02:43:06.954Z,4.66
2018-01-07T02:45:36.779Z,4.72
2018-01-07T02:48:06.701Z,4.76
2018-01-07T02:50:36.594Z,4.68
2018-01-07T02:53:06.437Z,4.69
2018-01-07T02:55:36.239Z,4.60
2018-01-07T02:58:06.111Z,4.59
2018-01-07T03:00:35.953Z,4.56
2018-01-07T03:03:06.227Z,4.44
2018-01-07T03:05:36.095Z,4.52
2018-01-07T03:08:05.937Z,4.50
2018-01-07T03:10:35.881Z,4.59
2018-01-07T03:13:05.739Z,4.60
2018-01-07T03:15:35.625Z,4.60
2018-01-07T03:18:05.435Z,4.61
2018-01-07T03:20:35.894Z,4.61
2018-01-07T03:23:05.749Z,4.58
2018-01-07T03:25:35.559Z,4.56
2018-01-07T03:28:05.502Z,4.47
2018-01-07T03:30:35.305Z,4.57
2018-01-07T03:33:05.982Z,4.53
2018-01-07T03:35:36.355Z,4.44
2018-01-07T03:38:06.256Z,4.39
2018-01-07T03:40:36.255Z,4.51
2018-01-07T03:43:06.148Z,4.45
2018-01-07T03:48:38.223Z,4.38
2018-01-07T03:51:08.127Z,4.30
2018-01-07T03:53:37.923Z,4.34
2018-01-07T03:56:07.726Z,4.24
2018-01-07T03:58:37.365Z,4.22
2018-01-07T04:01:07.234Z,4.29
2018-01-07T04:03:37.571Z,4.41
2018-01-07T04:06:07.468Z,4.28
2018-01-07T04:08:37.353Z,4.32
2018-01-07T04:11:07.212Z,4.34
2018-01-07T04:13:37.006Z,4.45
2018-01-07T04:16:06.852Z,4.33
2018-01-07T04:18:37.083Z,4.41
2018-01-07T04:21:06.912Z,4.28
2018-01-07T04:23:43.206Z,4.18
2018-01-07T04:26:14.088Z,4.22
2018-01-07T04:28:44.029Z,4.24
2018-01-07T04:31:13.877Z,4.20
2018-01-07T04:33:43.766Z,4.30
2018-01-07T04:36:13.609Z,4.37
2018-01-07T04:38:43.158Z,4.41
2018-01-07T04:41:12.980Z,4.26
2018-01-07T04:43:42.798Z,4.20
2018-01-07T04:46:12.635Z,4.21
2018-01-07T04:48:42.506Z,4.26
2018-01-07T04:51:12.309Z,4.31
2018-01-07T04:53:42.144Z,4.15
2018-01-07T04:56:11.972Z,4.25
2018-01-07T04:58:41.833Z,4.29
2018-01-07T05:01:11.668Z,4.30
2018-01-07T05:03:41.492Z,4.31
2018-01-07T05:06:11.314Z,4.40
2018-01-07T05:08:41.129Z,4.47
2018-01-07T05:11:10.949Z,4.51
2018-01-07T05:13:40.840Z,4.43
2018-01-07T05:16:10.690Z,4.43
2018-01-07T05:18:40.547Z,4.39
2018-01-07T05:21:11.593Z,4.38
2018-01-07T05:23:41.873Z,4.37
2018-01-07T05:26:11.948Z,4.40
2018-01-07T05:28:41.740Z,4.30
2018-01-07T05:31:11.711Z,4.41
2018-01-07T05:33:41.574Z,4.46
2018-01-07T05:36:11.418Z,4.40
2018-01-07T05:38:41.368Z,4.36
2018-01-07T05:41:11.213Z,4.36
2018-01-07T05:43:41.131Z,4.37
2018-01-07T05:46:11.215Z,4.41
2018-01-07T05:48:41.141Z,4.45
2018-01-07T05:51:11.038Z,4.50
2018-01-07T05:53:41.187Z,4.49
2018-01-07T05:56:11.029Z,4.45
2018-01-07T05:58:41.538Z,4.48
2018-01-07T06:01:11.332Z,4.50
2018-01-07T06:03:41.890Z,4.55
2018-01-07T06:06:14.008Z,4.52
2018-01-07T06:08:43.831Z,4.53
2018-01-07T06:11:13.725Z,4.53
2018-01-07T06:13:43.558Z,4.60
2018-01-07T06:16:13.428Z,4.59
2018-01-07T06:18:43.356Z,4.62
2018-01-07T06:21:13.278Z,4.74
2018-01-07T06:23:43.191Z,4.73
2018-01-07T06:26:13.048Z,4.78
2018-01-07T06:28:43.104Z,4.82
2018-01-07T06:31:13.365Z,4.83
2018-01-07T06:33:43.211Z,4.90
2018-01-07T06:36:13.276Z,4.93
2018-01-07T06:38:43.133Z,4.90
2018-01-07T06:41:13.027Z,4.86
2018-01-07T06:46:16.759Z,4.74
2018-01-07T06:48:46.697Z,4.66
2018-01-07T06:51:17.081Z,4.75
2018-01-07T06:53:47.485Z,4.60
2018-01-07T06:58:52.048Z,4.45
2018-01-07T07:01:21.890Z,4.48
2018-01-07T07:03:54.086Z,4.38
2018-01-07T07:06:25.097Z,4.36
2018-01-07T07:08:55.667Z,4.18
2018-01-07T07:11:25.486Z,4.00
2018-01-07T07:13:55.850Z,3.90
2018-01-07T07:16:26.237Z,3.83
2018-01-07T07:18:56.327Z,3.85
2018-01-07T07:21:26.904Z,3.80
2018-01-07T07:23:57.582Z,3.70
2018-01-07T07:26:29.109Z,3.70
2018-01-07T07:31:32.899Z,3.77
2018-01-07T07:34:03.246Z,3.74
2018-01-07T07:36:33.250Z,3.63
2018-01-07T07:39:03.977Z,3.62
2018-01-07T07:41:35.255Z,3.62
2018-01-07T07:44:07.006Z,3.65
2018-01-07T07:46:37.268Z,3.72
2018-01-07T07:49:07.117Z,3.74
2018-01-07T07:51:37.262Z,3.77
2018-01-07T07:54:07.166Z,3.94
2018-01-07T07:56:37.748Z,4.15
2018-01-07T07:59:07.721Z,4.28
2018-01-07T08:01:37.816Z,4.41
2018-01-07T08:04:08.163Z,4.52
2018-01-07T08:06:40.177Z,4.53
2018-01-07T08:09:09.974Z,4.76
2018-01-07T08:11:39.777Z,4.91
2018-01-07T08:14:09.834Z,5.02
2018-01-07T08:16:39.653Z,5.07
2018-01-07T08:19:10.293Z,5.24
2018-01-07T08:21:40.130Z,5.40
2018-01-07T08:24:09.957Z,5.63
2018-01-07T08:26:39.741Z,5.78
2018-01-07T08:33:31.428Z,5.85
2018-01-07T08:51:10.824Z,7.44
2018-01-07T08:53:40.674Z,8.49
2018-01-07T08:56:11.312Z,9.72
2018-01-07T08:58:42.002Z,11.90
2018-01-07T09:01:12.192Z,13.33
2018-01-07T09:03:42.334Z,14.02
2018-01-07T09:06:13.343Z,14.99
2018-01-07T09:08:43.279Z,16.44
2018-01-07T09:11:14.255Z,17.43
2018-01-07T09:13:44.081Z,16.13
2018-01-07T09:16:13.915Z,18.62
2018-01-07T09:18:44.366Z,17.63
2018-01-07T09:21:14.319Z,18.51
2018-01-07T09:23:43.695Z,20.06
2018-01-07T09:26:13.398Z,19.79
2018-01-07T09:28:42.962Z,21.62
2018-01-07T09:31:12.743Z,17.86
2018-01-07T09:33:42.441Z,18.70
2018-01-07T09:36:12.156Z,18.02
2018-01-07T09:38:42.007Z,18.19
2018-01-07T09:41:11.805Z,19.16
2018-01-07T09:43:41.599Z,19.59
2018-01-07T09:46:11.962Z,16.94
2018-01-07T09:48:42.239Z,16.63
2018-01-07T09:51:11.726Z,15.87
2018-01-07T09:53:42.177Z,14.14
2018-01-07T09:56:11.948Z,13.67
2018-01-07T09:58:41.782Z,13.01
2018-01-07T10:01:15.585Z,12.31
2018-01-07T10:03:46.080Z,12.22
2018-01-07T10:06:15.972Z,12.22
2018-01-07T10:08:45.816Z,11.43
2018-01-07T10:11:16.047Z,11.26
2018-01-07T10:13:46.406Z,10.49
2018-01-07T10:16:16.320Z,10.81
2018-01-07T10:18:46.302Z,10.66
2018-01-07T10:21:16.112Z,11.08
2018-01-07T10:23:46.445Z,11.04
2018-01-07T10:26:21.489Z,11.33
2018-01-07T10:28:51.463Z,10.99
2018-01-07T10:31:21.265Z,11.15
2018-01-07T10:33:51.099Z,11.31
2018-01-07T10:36:21.038Z,10.86
2018-01-07T10:38:50.868Z,10.79
2018-01-07T10:41:20.844Z,10.91
2018-01-07T10:43:51.024Z,11.58
2018-01-07T10:46:21.236Z,11.60
2018-01-07T10:48:51.141Z,12.07
2018-01-07T10:51:20.945Z,12.31
2018-01-07T10:53:50.979Z,12.76
2018-01-07T10:56:23.251Z,12.53
2018-01-07T10:58:53.074Z,13.11
2018-01-07T11:01:28.545Z,13.07
2018-01-07T11:03:58.738Z,12.88
2018-01-07T11:06:28.998Z,12.26
2018-01-07T11:08:58.867Z,12.10
2018-01-07T11:11:28.798Z,11.41
2018-01-07T11:13:58.666Z,11.53
2018-01-07T11:16:28.491Z,11.30
2018-01-07T11:18:58.670Z,11.43
2018-01-07T11:21:28.504Z,11.16
2018-01-07T11:23:58.353Z,11.69
2018-01-07T11:26:28.279Z,11.09
2018-01-07T11:28:58.970Z,11.29
2018-01-07T11:31:29.109Z,11.38
2018-01-07T11:33:59.666Z,10.89
2018-01-07T11:36:29.683Z,11.24
2018-01-07T11:38:59.514Z,10.57
2018-01-07T11:41:29.878Z,10.90
2018-01-07T11:44:00.422Z,10.73
2018-01-07T11:46:29.955Z,10.70
2018-01-07T11:48:59.779Z,10.62
2018-01-07T11:51:29.606Z,10.33
2018-01-07T11:53:59.408Z,10.82
2018-01-07T11:56:30.072Z,10.63
2018-01-07T11:58:59.936Z,10.54
2018-01-07T12:01:29.749Z,10.38
2018-01-07T12:04:00.199Z,10.52
2018-01-07T12:06:29.906Z,10.45
2018-01-07T12:09:00.002Z,10.40
2018-01-07T12:11:29.847Z,10.34
2018-01-07T12:13:59.717Z,10.01
2018-01-07T12:16:29.578Z,10.05
2018-01-07T12:18:59.418Z,10.11
2018-01-07T12:21:29.538Z,9.86
2018-01-07T12:23:59.338Z,9.51
2018-01-07T12:26:29.433Z,9.42
2018-01-07T12:28:59.244Z,9.33
2018-01-07T12:31:29.150Z,9.34
2018-01-07T12:33:59.517Z,9.36
2018-01-07T12:36:29.634Z,9.34
2018-01-07T12:38:59.509Z,9.46
2018-01-07T12:41:29.316Z,9.45
2018-01-07T12:43:59.357Z,9.49
2018-01-07T12:46:29.172Z,9.64
2018-01-07T12:48:58.983Z,9.50
2018-01-07T12:51:28.777Z,9.82
2018-01-07T12:53:58.573Z,9.64
2018-01-07T12:56:28.520Z,9.82
2018-01-07T12:58:58.469Z,9.80
2018-01-07T13:01:28.306Z,9.91
2018-01-07T13:03:58.091Z,10.06
2018-01-07T13:06:27.922Z,10.13
2018-01-07T13:08:57.741Z,10.01
2018-01-07T13:11:27.552Z,9.93
2018-01-07T13:13:57.765Z,9.83
2018-01-07T13:16:27.553Z,9.74
2018-01-07T13:18:57.386Z,9.83
2018-01-07T13:21:27.215Z,9.98
2018-01-07T13:23:57.041Z,10.05
2018-01-07T13:26:26.853Z,10.04
2018-01-07T13:28:57.548Z,10.08
2018-01-07T13:31:27.371Z,10.22
2018-01-07T13:33:57.205Z,10.16
2018-01-07T13:36:27.009Z,9.93
2018-01-07T13:38:56.807Z,9.95
2018-01-07T13:41:26.657Z,10.06
2018-01-07T13:43:56.477Z,10.11
2018-01-07T13:46:26.306Z,10.04
2018-01-07T13:48:56.207Z,10.06
2018-01-07T13:51:26.099Z,9.98
2018-01-07T13:53:55.904Z,10.12
2018-01-07T13:56:26.127Z,10.15
2018-01-07T13:58:56.180Z,10.06
2018-01-07T14:01:26.116Z,9.88
2018-01-07T14:03:55.684Z,9.82
2018-01-07T14:06:25.540Z,9.75
2018-01-07T14:08:55.568Z,9.68
2018-01-07T14:11:25.560Z,9.65
2018-01-07T14:13:55.384Z,9.66
2018-01-07T14:16:25.195Z,9.62
2018-01-07T14:18:54.996Z,9.57
2018-01-07T14:21:24.918Z,9.56
2018-01-07T14:23:54.737Z,9.50
2018-01-07T14:26:24.289Z,9.47
2018-01-07T14:28:54.165Z,9.41
2018-01-07T14:31:24.594Z,9.47
2018-01-07T14:33:54.418Z,9.44
2018-01-07T14:36:25.019Z,9.47
2018-01-07T14:38:54.847Z,9.47
2018-01-07T14:41:25.260Z,9.48
2018-01-07T14:43:55.128Z,9.49
2018-01-07T14:46:24.782Z,9.54
2018-01-07T14:48:54.772Z,9.41
2018-01-07T14:51:24.617Z,9.38
2018-01-07T14:53:54.405Z,9.33
2018-01-07T14:56:25.761Z,9.29
2018-01-07T14:58:55.715Z,9.26
2018-01-07T15:01:25.565Z,9.29
2018-01-07T15:03:55.557Z,9.29
2018-01-07T15:06:25.406Z,9.23
2018-01-07T15:08:55.579Z,9.18
2018-01-07T15:11:26.161Z,9.17
2018-01-07T15:13:56.361Z,9.18
2018-01-07T15:16:26.238Z,9.17
2018-01-07T15:18:56.100Z,9.20
2018-01-07T15:21:26.808Z,9.20
2018-01-07T15:23:56.776Z,9.28
2018-01-07T15:26:26.744Z,9.31
2018-01-07T15:28:56.976Z,9.42
2018-01-07T15:31:27.542Z,9.51
2018-01-07T15:33:58.074Z,9.52
2018-01-07T15:36:28.645Z,9.58
2018-01-07T15:38:58.472Z,9.60
2018-01-07T15:41:28.298Z,9.60
2018-01-07T15:43:58.224Z,9.64
2018-01-07T15:46:28.083Z,9.62
2018-01-07T15:48:58.128Z,9.58
2018-01-07T15:51:28.037Z,9.58
2018-01-07T15:53:57.924Z,9.56
2018-01-07T15:56:28.229Z,9.52
2018-01-07T15:58:58.096Z,9.49
2018-01-07T16:01:27.953Z,9.50
2018-01-07T16:03:57.806Z,9.52
2018-01-07T16:06:27.644Z,9.61
2018-01-07T16:08:58.357Z,9.57
2018-01-07T16:11:28.338Z,9.53
2018-01-07T16:13:58.240Z,9.59
2018-01-07T16:16:28.425Z,9.58
2018-01-07T16:18:58.581Z,9.56
2018-01-07T16:21:29.225Z,9.54
2018-01-07T16:23:59.097Z,9.51
2018-01-07T16:26:29.532Z,9.54
2018-01-07T16:28:59.734Z,9.58
2018-01-07T16:31:29.565Z,9.60
2018-01-07T16:33:59.395Z,9.55
2018-01-07T16:36:29.276Z,9.59
2018-01-07T16:38:59.128Z,9.57
2018-01-07T16:41:28.966Z,9.58
2018-01-07T16:43:59.013Z,9.60
2018-01-07T16:46:28.883Z,9.57
2018-01-07T16:48:58.725Z,9.58
2018-01-07T16:51:28.627Z,9.52
2018-01-07T16:53:58.520Z,9.51
2018-01-07T16:56:28.320Z,9.58
2018-01-07T16:58:58.274Z,9.49
2018-01-07T17:04:12.341Z,9.53
2018-01-07T17:06:42.156Z,9.54
2018-01-07T17:09:12.004Z,9.55
2018-01-07T17:11:41.916Z,9.49
2018-01-07T17:14:11.804Z,9.55
2018-01-07T17:16:41.961Z,9.52
2018-01-07T17:19:12.277Z,9.54
2018-01-07T17:21:42.094Z,9.48
2018-01-07T17:24:11.984Z,9.54
2018-01-07T17:26:42.252Z,9.59
2018-01-07T17:29:13.513Z,9.75
2018-01-07T17:31:47.823Z,9.71
2018-01-07T17:34:19.990Z,9.63
2018-01-07T17:36:49.955Z,9.59
2018-01-07T17:39:22.246Z,9.50
2018-01-07T17:41:52.148Z,9.54
2018-01-07T17:44:23.492Z,9.48
2018-01-07T17:46:56.106Z,9.47
2018-01-07T17:49:25.977Z,9.45
2018-01-07T17:51:57.658Z,9.42
2018-01-07T17:54:27.508Z,9.44
2018-01-07T17:56:57.330Z,9.44
2018-01-07T17:59:27.183Z,9.42
2018-01-07T18:02:08.572Z,9.33
2018-01-07T18:04:40.632Z,9.32
2018-01-07T18:07:11.950Z,9.34
2018-01-07T18:09:41.871Z,9.33
2018-01-07T18:12:11.749Z,9.39
2018-01-07T18:14:41.570Z,9.38
2018-01-07T18:17:12.334Z,9.28
2018-01-07T18:19:42.170Z,9.37
2018-01-07T18:22:12.505Z,9.36
2018-01-07T18:24:43.470Z,9.28
2018-01-07T18:27:13.347Z,9.34
2018-01-07T18:29:43.281Z,9.34
2018-01-07T18:32:13.402Z,9.35
2018-01-07T18:34:43.445Z,9.30
2018-01-07T18:37:13.309Z,9.27
2018-01-07T18:39:43.346Z,9.28
2018-01-07T18:42:14.227Z,9.21
2018-01-07T18:44:44.099Z,9.24
2018-01-07T18:47:13.898Z,9.18
2018-01-07T18:49:43.789Z,9.19
2018-01-07T18:52:13.692Z,9.19
2018-01-07T18:54:43.717Z,9.19
2018-01-07T18:57:14.083Z,9.19
2018-01-07T18:59:43.997Z,9.38
2018-01-07T19:02:13.542Z,9.48
2018-01-07T19:04:43.384Z,9.77
2018-01-07T19:07:13.155Z,9.57
2018-01-07T19:09:43.163Z,9.84
2018-01-07T19:12:13.226Z,9.57
2018-01-07T19:14:43.117Z,9.60
2018-01-07T19:17:13.082Z,9.46
2018-01-07T19:22:18.478Z,9.33
2018-01-07T19:24:49.278Z,9.32
2018-01-07T19:29:53.327Z,9.22
2018-01-07T19:35:00.007Z,9.17
2018-01-07T19:43:15.107Z,8.97
2018-01-07T19:45:45.262Z,8.98
2018-01-07T19:48:17.581Z,8.92
2018-01-07T19:50:47.890Z,9.01
2018-01-07T19:53:18.194Z,8.97
2018-01-07T19:55:48.537Z,8.91
2018-01-07T20:00:56.851Z,8.94
2018-01-07T20:03:27.838Z,8.90
2018-01-07T20:05:58.704Z,8.88
2018-01-07T20:08:28.638Z,8.87
2018-01-07T20:13:48.265Z,8.75
2018-01-07T20:19:11.004Z,8.69
2018-01-07T20:21:40.961Z,8.71
2018-01-07T20:26:49.271Z,8.74
2018-01-07T20:29:20.719Z,8.72
2018-01-07T20:31:50.587Z,8.65
2018-01-07T20:34:20.531Z,8.75
2018-01-07T20:36:51.640Z,8.74
2018-01-07T20:39:21.852Z,8.74
2018-01-07T20:41:51.762Z,8.75
2018-01-07T20:44:22.459Z,8.78
2018-01-07T20:46:52.310Z,8.62
2018-01-07T20:49:22.808Z,8.57
2018-01-07T20:51:55.373Z,8.60
2018-01-07T20:54:25.573Z,8.65
2018-01-07T20:56:57.575Z,8.65
2018-01-07T20:59:29.133Z,8.57
2018-01-07T21:12:37.956Z,8.51
2018-01-07T21:15:07.934Z,8.49
2018-01-07T21:17:38.082Z,8.49
2018-01-07T21:20:09.090Z,8.50
2018-01-07T21:22:39.027Z,8.39
2018-01-07T21:25:09.246Z,8.45
2018-01-07T21:27:39.233Z,8.41
2018-01-07T21:30:09.198Z,8.44
2018-01-07T21:32:39.443Z,8.43
2018-01-07T21:35:09.740Z,8.42
2018-01-07T21:37:40.052Z,8.44
2018-01-07T21:40:13.233Z,8.41
2018-01-07T21:42:43.347Z,8.49
2018-01-07T21:45:13.548Z,8.32
2018-01-07T21:47:44.596Z,8.42
2018-01-07T21:50:14.977Z,8.35
2018-01-07T21:52:45.205Z,8.40
2018-01-07T21:55:15.692Z,8.40
2018-01-07T21:57:47.185Z,8.39
2018-01-07T22:00:40.430Z,8.36
2018-01-07T22:03:22.325Z,8.41
2018-01-07T22:05:56.299Z,8.33
2018-01-07T22:08:26.516Z,8.32
2018-01-07T22:10:59.163Z,8.34
2018-01-07T22:16:03.296Z,8.35
2018-01-07T22:18:33.192Z,8.35
2018-01-07T22:21:03.115Z,8.36
2018-01-07T22:23:33.020Z,8.29
2018-01-07T22:26:03.198Z,8.29
2018-01-07T22:28:33.127Z,8.28
2018-01-07T22:31:03.061Z,8.25
2018-01-07T22:33:32.969Z,8.28
2018-01-07T22:36:03.163Z,8.29
2018-01-07T22:38:33.056Z,8.28
2018-01-07T22:41:03.370Z,8.30
2018-01-07T22:43:33.724Z,8.34
2018-01-07T22:46:03.403Z,8.33
2018-01-07T22:48:33.354Z,8.27
2018-01-07T22:51:03.225Z,8.27
2018-01-07T22:53:33.104Z,8.26
2018-01-07T22:56:03.019Z,8.27
2018-01-07T22:58:33.072Z,8.27
2018-01-07T23:01:08.389Z,8.29
2018-01-07T23:03:38.124Z,8.27
2018-01-07T23:06:08.024Z,8.23
2018-01-07T23:08:38.027Z,8.29
2018-01-07T23:11:08.074Z,8.29
2018-01-07T23:13:37.960Z,8.26
2018-01-07T23:16:10.010Z,8.28
2018-01-07T23:18:46.838Z,8.28
2018-01-07T23:21:16.708Z,8.19
2018-01-07T23:23:46.580Z,8.16
2018-01-07T23:26:16.868Z,8.17
2018-01-07T23:28:46.701Z,8.13
2018-01-07T23:31:16.603Z,8.19
2018-01-07T23:33:46.463Z,8.09
2018-01-07T23:36:16.198Z,8.16
2018-01-07T23:38:46.079Z,8.09
2018-01-07T23:41:16.020Z,8.13
2018-01-07T23:43:45.916Z,8.07
2018-01-07T23:46:15.977Z,8.10
2018-01-07T23:48:45.851Z,8.10
2018-01-07T23:51:15.755Z,8.09
2018-01-07T23:53:45.636Z,8.03
2018-01-07T23:56:15.536Z,8.02
2018-01-07T23:58:45.392Z,8.04
